Terminal Aerodrome Forecast
Issued by NWS

Home | Current Version | Previous Version | Text Only | Print | Product List | Glossary Off
Versions: 1 2 3 4 5 6 7 8 9 10 11 12 13

954
FTUS43 KGRB 172332
TAFAUW
TAF
KAUW 172332Z 1800/1824 25007KT P6SM BKN015
      TEMPO 1800/1803 SCT015 SCT040
     FM180300 28007KT P6SM FEW040
     FM180600 22003KT P6SM SCT120
     FM181500 13007KT P6SM OVC110 WS020/18035KT
     FM181700 16014G22KT P6SM OVC100 WS020/19045KT=

USA.gov is the U.S. government's official web portal to all federal, state and local government web resources and services.